Nagpur Sonegaon, India

9:01 AM IST on October 25, 2014 (GMT +0530)
Nagpur | Change Station
CLOSE
Current Station
Airport
Location: Nagpur Sonegaon,
Elevation: 1017 ft
Nearby Weather Stations

Elev 1017 ft 21.09 °N, 79.06 °E | Updated 21 minutes ago

Light Rain
Light Rain
73 °F
Feels Like 73 °F
N
4
Wind Variable Wind from NE

Today
High -- | Low -- °F
--% Chance of Precip.
Yesterday
High -- | Low -- °F
Precip. -- in
6:13 AM 5:42 PM
New Moon, 2% visible
Pressure 30.01 in
Visibility 1.6 miles
Clouds Scattered Clouds 2000 ft
Overcast 8000 ft
Dew Point 66 °F
Humidity 78%
Rainfall 0.00 in
Snow Depth Not available.
UV 2 out of 12
Pollen Not available.
Air Quality Not available.
Flu Activity Not available.
METAR VANP 250310Z 05003KT 2500 -RA SCT020 OVC080 23/19 Q1016 NOSIG

More Conditions Fewer Conditions

Pressure 30.01 in
Visibility 1.6 miles
Clouds Scattered Clouds 2000 ft
Overcast 8000 ft
Dew Point 66 °F
Humidity 78%
Rainfall 0.00 in
Snow Depth Not available.
UV 2 out of 12
Pollen Not available.
Air Quality Not available.
Flu Activity Not available.
METAR VANP 250310Z 05003KT 2500 -RA SCT020 OVC080 23/19 Q1016 NOSIG

More Conditions Fewer Conditions

10-Day Weather Forecast

Almanac

Astronomy

Oct. 25, 2014 Rise Set
Actual Time 6:13 AM IST 5:42 PM IST
Civil Twilight 5:50 AM IST 6:05 PM IST
Nautical Twilight 5:24 AM IST 6:31 PM IST
Astronomical Twilight 4:58 AM IST 6:57 PM IST
Moon 7:17 AM IST 6:53 PM IST
Length of Visible Light 12h 14m
Length of Day
11h 29m
Tomorrow will be 1m 6s shorter.
New Moon, 2% of the Moon is Illuminated
Oct 24
New Moon
Oct 30
First Quarter
Nov 6
Full
Nov 14
Last Quarter
Nov 22
New

Yesterday's Extremes

Country Highs Country Lows

Community

WunderPhotos

Upload Photos

1,764,771 photos uploaded!

Nearby

Snow Depth

Not available.

Earthquake Activity

City Distance Mag. Time & Date
No recent earthquake activity has been reported nearby.
Minimum magnitude displayed is 2.5.

Coastal Water Temperatures

Place Temperature
No Stations Reporting

Nearby Weather Stations